Time;durP1;ratioP1;P1;durP2;ratioP2;P2;SDS_P1;SDS_P2;PMS_P1;PMS_P2;Temp;Humidity;BMP_temperature;BMP_pressure;BME280_temperature;BME280_humidity;BME280_pressure;Samples;Min_cycle;Max_cycle;Signal;HPM_P1;HPM_P2
2021/10/21 00:01:11;;;;;;;0.00;0.00;;;;;;;;;;4975513;28;20098;-77
2021/10/21 00:03:36;;;;;;;0.00;0.00;;;;;;;;;;4975767;28;20030;-77
2021/10/21 00:06:02;;;;;;;0.00;0.00;;;;;;;;;;4975256;28;20043;-77
2021/10/21 00:08:27;;;;;;;0.10;0.10;;;;;;;;;;4975420;28;20023;-77
2021/10/21 00:10:53;;;;;;;0.00;0.00;;;;;;;;;;4975267;28;20073;-77
2021/10/21 00:13:18;;;;;;;0.00;0.00;;;;;;;;;;4975542;28;20061;-77
2021/10/21 00:15:44;;;;;;;0.00;0.00;;;;;;;;;;4975096;28;20086;-78
2021/10/21 00:18:09;;;;;;;0.00;0.00;;;;;;;;;;4975481;28;20030;-77
2021/10/21 00:20:34;;;;;;;0.00;0.00;;;;;;;;;;4975081;28;20379;-78
2021/10/21 00:22:59;;;;;;;0.10;0.10;;;;;;;;;;4975351;28;20049;-77
2021/10/21 00:25:25;;;;;;;0.10;0.10;;;;;;;;;;4975270;28;20022;-78
2021/10/21 00:27:50;;;;;;;0.00;0.00;;;;;;;;;;4975253;28;20381;-78
2021/10/21 00:30:15;;;;;;;0.00;0.00;;;;;;;;;;4975233;28;20027;-78
2021/10/21 00:32:42;;;;;;;0.10;0.10;;;;;;;;;;4975224;28;20030;-77
2021/10/21 00:35:08;;;;;;;0.00;0.00;;;;;;;;;;4975068;28;20053;-77
2021/10/21 00:37:33;;;;;;;0.47;0.47;;;;;;;;;;4974827;28;20098;-77
2021/10/21 00:39:58;;;;;;;1.13;1.02;;;;;;;;;;4974998;28;20030;-78
2021/10/21 00:42:23;;;;;;;0.00;0.00;;;;;;;;;;4974999;28;20475;-77
2021/10/21 00:44:49;;;;;;;1.48;1.38;;;;;;;;;;4975030;28;20023;-78
2021/10/21 00:47:16;;;;;;;0.00;0.00;;;;;;;;;;4975045;28;20141;-77
2021/10/21 00:49:41;;;;;;;0.57;0.57;;;;;;;;;;4974658;28;20030;-77
2021/10/21 00:52:06;;;;;;;0.00;0.00;;;;;;;;;;4974521;28;20027;-77
2021/10/21 00:54:32;;;;;;;0.10;0.10;;;;;;;;;;4974802;28;20041;-77
2021/10/21 00:56:58;;;;;;;0.00;0.00;;;;;;;;;;4974866;28;20478;-78
2021/10/21 00:59:23;;;;;;;0.10;0.10;;;;;;;;;;4974726;28;20521;-78
2021/10/21 01:01:48;;;;;;;0.00;0.00;;;;;;;;;;4974775;28;20533;-78
2021/10/21 01:04:14;;;;;;;0.93;0.57;;;;;;;;;;4974949;28;20126;-77
2021/10/21 01:06:42;;;;;;;0.00;0.00;;;;;;;;;;4974714;28;20455;-77
2021/10/21 01:09:08;;;;;;;0.00;0.00;;;;;;;;;;4974667;28;20054;-77
2021/10/21 01:11:33;;;;;;;0.00;0.00;;;;;;;;;;4974513;28;20110;-78
2021/10/21 01:13:58;;;;;;;0.00;0.00;;;;;;;;;;4974646;28;20113;-77
2021/10/21 01:16:24;;;;;;;0.10;0.10;;;;;;;;;;4974924;28;20439;-78
2021/10/21 01:18:49;;;;;;;0.10;0.10;;;;;;;;;;4974354;28;20078;-78
2021/10/21 01:21:14;;;;;;;0.00;0.00;;;;;;;;;;4974338;28;20062;-77
2021/10/21 01:23:40;;;;;;;0.10;0.10;;;;;;;;;;4974441;28;20027;-77
2021/10/21 01:26:07;;;;;;;0.00;0.00;;;;;;;;;;4974803;28;20065;-77
2021/10/21 01:28:32;;;;;;;0.10;0.10;;;;;;;;;;4974413;28;20089;-77
2021/10/21 01:30:58;;;;;;;0.00;0.00;;;;;;;;;;4974567;28;20467;-78
2021/10/21 01:33:23;;;;;;;0.10;0.10;;;;;;;;;;4977018;28;20035;-78
2021/10/21 01:35:48;;;;;;;0.10;0.10;;;;;;;;;;4978432;28;20547;-79
2021/10/21 01:38:13;;;;;;;0.00;0.00;;;;;;;;;;4978696;28;20027;-77
2021/10/21 01:40:39;;;;;;;0.10;0.10;;;;;;;;;;4978301;28;20030;-78
2021/10/21 01:43:04;;;;;;;0.82;0.80;;;;;;;;;;4978229;28;20027;-77
2021/10/21 01:45:31;;;;;;;0.00;0.00;;;;;;;;;;4978330;28;20018;-77
2021/10/21 01:48:00;;;;;;;1.08;0.90;;;;;;;;;;4978089;28;20062;-78
2021/10/21 01:50:27;;;;;;;0.10;0.10;;;;;;;;;;4978152;28;20026;-78
2021/10/21 01:52:52;;;;;;;0.00;0.00;;;;;;;;;;4977980;28;20033;-78
2021/10/21 01:55:18;;;;;;;0.10;0.10;;;;;;;;;;4978125;28;20047;-77
2021/10/21 01:57:44;;;;;;;0.00;0.00;;;;;;;;;;4960742;28;20029;-79
2021/10/21 02:00:10;;;;;;;0.00;0.00;;;;;;;;;;4977637;28;20464;-77
2021/10/21 02:02:35;;;;;;;0.20;0.20;;;;;;;;;;4977398;28;20395;-77
2021/10/21 02:05:01;;;;;;;0.10;0.10;;;;;;;;;;4977783;28;20030;-77
2021/10/21 02:07:26;;;;;;;0.10;0.10;;;;;;;;;;4977793;28;20379;-77
2021/10/21 02:09:52;;;;;;;0.10;0.10;;;;;;;;;;4977851;28;20050;-78
2021/10/21 02:12:17;;;;;;;0.00;0.00;;;;;;;;;;4977923;28;20026;-77
2021/10/21 02:14:42;;;;;;;0.00;0.00;;;;;;;;;;4977696;28;20539;-77
2021/10/21 02:17:08;;;;;;;0.40;0.30;;;;;;;;;;4977554;28;20535;-77
2021/10/21 02:19:34;;;;;;;0.00;0.00;;;;;;;;;;4977344;28;20023;-77
2021/10/21 02:21:59;;;;;;;0.00;0.00;;;;;;;;;;4977333;28;20034;-77
2021/10/21 02:24:24;;;;;;;0.00;0.00;;;;;;;;;;4977476;28;20034;-78
2021/10/21 02:26:50;;;;;;;0.00;0.00;;;;;;;;;;4977454;28;20019;-79
2021/10/21 02:29:15;;;;;;;0.00;0.00;;;;;;;;;;4977464;28;20030;-77
2021/10/21 02:31:41;;;;;;;0.00;0.00;;;;;;;;;;4977681;28;20038;-77
2021/10/21 02:34:06;;;;;;;0.00;0.00;;;;;;;;;;4977259;28;20041;-77
2021/10/21 02:36:31;;;;;;;0.00;0.00;;;;;;;;;;4977411;28;20371;-77
2021/10/21 02:38:57;;;;;;;0.00;0.00;;;;;;;;;;4977297;28;20041;-77
2021/10/21 02:41:22;;;;;;;0.45;0.30;;;;;;;;;;4976816;28;20037;-79
2021/10/21 02:43:48;;;;;;;0.00;0.00;;;;;;;;;;4977277;28;20019;-77
2021/10/21 02:46:13;;;;;;;0.00;0.00;;;;;;;;;;4977108;28;20042;-77
2021/10/21 02:48:38;;;;;;;0.00;0.00;;;;;;;;;;4977379;28;20030;-77
2021/10/21 02:51:04;;;;;;;0.00;0.00;;;;;;;;;;4977382;28;20105;-77
2021/10/21 02:53:29;;;;;;;0.10;0.10;;;;;;;;;;4976572;28;20057;-77
2021/10/21 02:55:55;;;;;;;0.00;0.00;;;;;;;;;;4976909;28;20194;-77
2021/10/21 02:58:20;;;;;;;0.10;0.10;;;;;;;;;;4976992;28;20451;-77
2021/10/21 03:00:45;;;;;;;0.00;0.00;;;;;;;;;;4976937;28;20061;-77
2021/10/21 03:03:10;;;;;;;0.00;0.00;;;;;;;;;;4976838;28;20027;-77
2021/10/21 03:05:36;;;;;;;0.10;0.10;;;;;;;;;;4976517;28;20380;-77
2021/10/21 03:08:01;;;;;;;0.10;0.10;;;;;;;;;;4976657;28;20046;-78
2021/10/21 03:10:26;;;;;;;0.00;0.00;;;;;;;;;;4976899;28;20106;-77
2021/10/21 03:12:51;;;;;;;1.45;1.33;;;;;;;;;;4976675;28;20023;-78
2021/10/21 03:15:17;;;;;;;0.05;0.05;;;;;;;;;;4976606;28;20122;-77
2021/10/21 03:17:42;;;;;;;0.00;0.00;;;;;;;;;;4976495;28;20023;-77
2021/10/21 03:20:09;;;;;;;0.00;0.00;;;;;;;;;;4976561;28;20027;-78
2021/10/21 03:22:34;;;;;;;0.10;0.10;;;;;;;;;;4976134;28;20553;-77
2021/10/21 03:25:00;;;;;;;0.00;0.00;;;;;;;;;;4976380;28;20030;-77
2021/10/21 03:27:25;;;;;;;0.15;0.15;;;;;;;;;;4976371;28;20375;-77
2021/10/21 03:29:51;;;;;;;0.10;0.10;;;;;;;;;;4976619;28;20042;-77
2021/10/21 03:32:16;;;;;;;0.00;0.00;;;;;;;;;;4976292;28;20467;-77
2021/10/21 03:34:41;;;;;;;0.00;0.00;;;;;;;;;;4976129;28;20030;-77
2021/10/21 03:37:06;;;;;;;0.00;0.00;;;;;;;;;;4976168;28;20132;-77
2021/10/21 03:39:32;;;;;;;0.00;0.00;;;;;;;;;;4976216;28;20023;-77
2021/10/21 03:41:57;;;;;;;0.00;0.00;;;;;;;;;;4976116;28;20027;-80
2021/10/21 03:44:22;;;;;;;0.00;0.00;;;;;;;;;;4975779;28;20031;-78
2021/10/21 03:46:48;;;;;;;0.00;0.00;;;;;;;;;;4976047;28;20447;-77
2021/10/21 03:49:13;;;;;;;0.52;0.35;;;;;;;;;;4975975;28;20085;-77
2021/10/21 03:51:38;;;;;;;0.00;0.00;;;;;;;;;;4975844;28;20053;-77
2021/10/21 03:54:04;;;;;;;0.00;0.00;;;;;;;;;;4975709;28;20041;-78
2021/10/21 03:56:29;;;;;;;0.00;0.00;;;;;;;;;;4975444;28;20033;-77
2021/10/21 03:58:54;;;;;;;0.00;0.00;;;;;;;;;;4976085;28;20042;-78
2021/10/21 04:01:20;;;;;;;0.00;0.00;;;;;;;;;;4975608;28;20027;-77
2021/10/21 04:03:45;;;;;;;0.00;0.00;;;;;;;;;;4975780;28;20018;-77
2021/10/21 04:06:11;;;;;;;0.28;0.28;;;;;;;;;;4975248;28;20518;-77
2021/10/21 04:08:36;;;;;;;0.00;0.00;;;;;;;;;;4975365;28;20125;-77
2021/10/21 04:11:01;;;;;;;0.00;0.00;;;;;;;;;;4975381;28;20128;-77
2021/10/21 04:13:26;;;;;;;0.98;0.55;;;;;;;;;;4975380;28;20034;-78
2021/10/21 04:15:52;;;;;;;0.10;0.10;;;;;;;;;;4975512;28;20025;-77
2021/10/21 04:18:18;;;;;;;0.20;0.20;;;;;;;;;;4975518;28;20349;-77
2021/10/21 04:20:43;;;;;;;33.58;0.98;;;;;;;;;;4975001;28;20034;-77
2021/10/21 04:23:08;;;;;;;0.00;0.00;;;;;;;;;;4975706;28;20027;-77
2021/10/21 04:25:33;;;;;;;0.98;0.95;;;;;;;;;;4975322;28;20026;-77
2021/10/21 04:27:59;;;;;;;0.00;0.00;;;;;;;;;;4975552;28;20034;-77
2021/10/21 04:30:24;;;;;;;0.03;0.03;;;;;;;;;;4974977;28;20427;-77
2021/10/21 04:32:50;;;;;;;0.45;0.38;;;;;;;;;;4975278;28;20463;-76
2021/10/21 04:35:15;;;;;;;0.00;0.00;;;;;;;;;;4974933;28;20043;-76
2021/10/21 04:37:40;;;;;;;0.00;0.00;;;;;;;;;;4975185;28;20603;-76
2021/10/21 04:40:06;;;;;;;2.40;1.83;;;;;;;;;;4975088;28;20019;-77
2021/10/21 04:42:31;;;;;;;0.00;0.00;;;;;;;;;;4974875;28;20081;-76
2021/10/21 04:44:57;;;;;;;0.00;0.00;;;;;;;;;;4974791;28;20097;-77
2021/10/21 04:47:22;;;;;;;0.00;0.00;;;;;;;;;;4974715;28;20034;-78
2021/10/21 04:49:47;;;;;;;1.75;1.55;;;;;;;;;;4974617;28;20152;-77
2021/10/21 04:52:12;;;;;;;0.55;0.55;;;;;;;;;;4974492;28;20033;-77
2021/10/21 04:54:38;;;;;;;0.00;0.00;;;;;;;;;;4974853;28;20031;-76
2021/10/21 04:57:04;;;;;;;0.20;0.20;;;;;;;;;;4974778;28;20034;-77
2021/10/21 04:59:29;;;;;;;0.00;0.00;;;;;;;;;;4974976;28;20027;-77
2021/10/21 05:01:54;;;;;;;0.10;0.10;;;;;;;;;;4974809;28;20023;-79
2021/10/21 05:04:20;;;;;;;0.00;0.00;;;;;;;;;;4974752;28;20034;-77
2021/10/21 05:06:45;;;;;;;0.00;0.00;;;;;;;;;;4973876;28;20042;-77
2021/10/21 05:09:11;;;;;;;0.10;0.10;;;;;;;;;;4974499;28;20415;-76
2021/10/21 05:11:36;;;;;;;0.10;0.10;;;;;;;;;;4974363;28;20042;-77
2021/10/21 05:14:01;;;;;;;5.35;0.45;;;;;;;;;;4974593;28;20043;-77
2021/10/21 05:16:26;;;;;;;0.00;0.00;;;;;;;;;;4974751;28;20050;-77
2021/10/21 05:18:52;;;;;;;0.30;0.30;;;;;;;;;;4974716;28;20035;-77
2021/10/21 05:21:17;;;;;;;0.00;0.00;;;;;;;;;;4956914;28;20383;-77
2021/10/21 05:23:42;;;;;;;0.55;0.55;;;;;;;;;;4974591;28;20019;-77
2021/10/21 05:26:07;;;;;;;0.25;0.20;;;;;;;;;;4974224;28;20098;-77
2021/10/21 05:28:33;;;;;;;0.00;0.00;;;;;;;;;;4974453;28;20052;-76
2021/10/21 05:30:58;;;;;;;0.10;0.10;;;;;;;;;;4974208;28;20057;-77
2021/10/21 05:33:25;;;;;;;2.83;2.28;;;;;;;;;;4974259;28;20038;-77
2021/10/21 05:35:50;;;;;;;0.10;0.10;;;;;;;;;;4974438;28;20022;-77
2021/10/21 05:38:16;;;;;;;0.10;0.10;;;;;;;;;;4974279;28;20023;-77
2021/10/21 05:40:41;;;;;;;0.00;0.00;;;;;;;;;;4974433;28;20081;-77
2021/10/21 05:43:06;;;;;;;0.00;0.00;;;;;;;;;;4974319;28;20026;-76
2021/10/21 05:45:32;;;;;;;0.38;0.38;;;;;;;;;;4974185;28;20027;-77
2021/10/21 05:47:57;;;;;;;0.35;0.35;;;;;;;;;;4974396;28;20090;-77
2021/10/21 05:50:22;;;;;;;3.63;2.85;;;;;;;;;;4974215;28;20023;-77
2021/10/21 05:52:48;;;;;;;0.50;0.50;;;;;;;;;;4974362;28;20027;-76
2021/10/21 05:55:13;;;;;;;0.05;0.05;;;;;;;;;;4973897;28;20069;-77
2021/10/21 05:57:38;;;;;;;0.40;0.40;;;;;;;;;;4974563;28;20015;-76
2021/10/21 06:00:04;;;;;;;0.00;0.00;;;;;;;;;;4974250;28;20452;-77
2021/10/21 06:02:29;;;;;;;0.00;0.00;;;;;;;;;;4974143;28;20030;-77
2021/10/21 06:04:55;;;;;;;0.10;0.10;;;;;;;;;;4956820;28;20023;-76
2021/10/21 06:07:20;;;;;;;0.00;0.00;;;;;;;;;;4974524;28;20026;-77
2021/10/21 06:09:45;;;;;;;0.00;0.00;;;;;;;;;;4973859;28;20062;-76
2021/10/21 06:12:11;;;;;;;0.20;0.20;;;;;;;;;;4974136;28;20019;-77
2021/10/21 06:14:36;;;;;;;0.17;0.17;;;;;;;;;;4974018;28;20027;-76
2021/10/21 06:17:02;;;;;;;0.00;0.00;;;;;;;;;;4974067;28;20066;-76
2021/10/21 06:19:27;;;;;;;0.00;0.00;;;;;;;;;;4976502;28;20451;-76
2021/10/21 06:22:05;;;;;;;0.00;0.00;;;;;;;;;;4977222;28;20019;-78
2021/10/21 06:24:31;;;;;;;0.00;0.00;;;;;;;;;;4996667;28;20026;-76
2021/10/21 06:26:56;;;;;;;1.27;1.23;;;;;;;;;;4996968;28;20023;-76
2021/10/21 06:29:22;;;;;;;0.00;0.00;;;;;;;;;;4996883;28;20110;-77
2021/10/21 06:31:50;;;;;;;0.05;0.05;;;;;;;;;;4996729;28;20034;-77
2021/10/21 06:34:16;;;;;;;0.10;0.10;;;;;;;;;;4996556;28;20093;-77
2021/10/21 06:36:41;;;;;;;0.00;0.00;;;;;;;;;;4996529;28;20038;-77
2021/10/21 06:39:06;;;;;;;0.00;0.00;;;;;;;;;;4996717;28;20030;-77
2021/10/21 06:41:31;;;;;;;0.10;0.10;;;;;;;;;;4996708;28;20036;-77
2021/10/21 06:43:57;;;;;;;0.00;0.00;;;;;;;;;;4996594;28;20034;-78
2021/10/21 06:46:23;;;;;;;0.10;0.10;;;;;;;;;;4996842;28;20069;-77
2021/10/21 06:48:48;;;;;;;0.55;0.35;;;;;;;;;;4996718;28;20521;-77
2021/10/21 06:51:14;;;;;;;0.00;0.00;;;;;;;;;;4996174;28;20033;-76
2021/10/21 06:53:39;;;;;;;0.65;0.65;;;;;;;;;;4996397;28;20101;-76
2021/10/21 06:56:04;;;;;;;0.00;0.00;;;;;;;;;;4996459;28;20026;-76
2021/10/21 06:58:30;;;;;;;0.00;0.00;;;;;;;;;;4996120;28;20034;-77
2021/10/21 07:00:55;;;;;;;0.10;0.10;;;;;;;;;;4996186;28;20053;-78
2021/10/21 07:03:21;;;;;;;0.10;0.10;;;;;;;;;;4996330;28;20080;-77
2021/10/21 07:05:48;;;;;;;0.00;0.00;;;;;;;;;;4996191;28;20478;-78
2021/10/21 07:08:13;;;;;;;0.10;0.10;;;;;;;;;;4994798;28;20022;-80
2021/10/21 07:10:39;;;;;;;0.03;0.03;;;;;;;;;;4982386;28;20518;-77
2021/10/21 07:13:05;;;;;;;0.08;0.08;;;;;;;;;;4976382;28;20035;-77
2021/10/21 07:15:34;;;;;;;0.00;0.00;;;;;;;;;;4976141;28;20093;-77
2021/10/21 07:17:59;;;;;;;0.10;0.10;;;;;;;;;;4976289;28;20131;-78
2021/10/21 07:20:24;;;;;;;0.00;0.00;;;;;;;;;;4976230;28;20047;-77
2021/10/21 07:22:51;;;;;;;0.00;0.00;;;;;;;;;;4976463;28;20146;-77
2021/10/21 07:25:16;;;;;;;0.10;0.10;;;;;;;;;;4976452;28;20023;-77
2021/10/21 07:27:42;;;;;;;0.22;0.22;;;;;;;;;;4958895;28;20639;-77
2021/10/21 07:30:07;;;;;;;0.10;0.10;;;;;;;;;;4975356;28;20023;-78
2021/10/21 07:32:33;;;;;;;3.33;2.05;;;;;;;;;;4976239;28;20030;-77
2021/10/21 07:34:58;;;;;;;0.10;0.10;;;;;;;;;;4975916;28;20047;-78
2021/10/21 07:37:23;;;;;;;0.40;0.40;;;;;;;;;;4976105;28;20019;-78
2021/10/21 07:39:49;;;;;;;10.00;2.35;;;;;;;;;;4976550;28;20089;-78
2021/10/21 07:42:14;;;;;;;0.10;0.10;;;;;;;;;;4975939;28;20038;-78
2021/10/21 07:44:40;;;;;;;0.10;0.10;;;;;;;;;;4976175;28;20019;-78
2021/10/21 07:47:05;;;;;;;0.10;0.10;;;;;;;;;;4972042;28;20057;-84
2021/10/21 07:49:31;;;;;;;1.40;1.30;;;;;;;;;;4992731;28;20042;-79
2021/10/21 07:51:57;;;;;;;2.05;1.35;;;;;;;;;;4994919;28;20030;-78
2021/10/21 07:54:27;;;;;;;2.17;1.10;;;;;;;;;;4994536;28;20122;-83
2021/10/21 07:56:53;;;;;;;0.10;0.10;;;;;;;;;;4994299;28;20026;-79
2021/10/21 07:59:19;;;;;;;0.22;0.22;;;;;;;;;;4994212;28;20030;-79
2021/10/21 08:01:44;;;;;;;0.45;0.45;;;;;;;;;;4994779;28;20037;-80
2021/10/21 08:04:13;;;;;;;0.10;0.10;;;;;;;;;;4983122;28;20039;-79
2021/10/21 08:06:39;;;;;;;1.35;1.25;;;;;;;;;;4957747;28;20379;-79
2021/10/21 08:09:04;;;;;;;0.20;0.15;;;;;;;;;;4975153;28;20046;-79
2021/10/21 08:11:30;;;;;;;0.00;0.00;;;;;;;;;;4994611;28;20112;-79
2021/10/21 08:13:55;;;;;;;0.10;0.10;;;;;;;;;;4979158;28;20039;-80
2021/10/21 08:16:20;;;;;;;0.05;0.05;;;;;;;;;;4982498;28;20031;-79
2021/10/21 08:18:46;;;;;;;0.00;0.00;;;;;;;;;;4994018;28;20437;-81
2021/10/21 08:21:11;;;;;;;0.10;0.10;;;;;;;;;;4993372;28;20454;-80
2021/10/21 08:23:37;;;;;;;0.10;0.10;;;;;;;;;;4988190;28;20030;-79
2021/10/21 08:26:02;;;;;;;0.35;0.35;;;;;;;;;;4991322;28;20085;-80
2021/10/21 08:28:27;;;;;;;2.28;1.08;;;;;;;;;;4992158;28;20033;-79
2021/10/21 08:30:53;;;;;;;0.57;0.57;;;;;;;;;;4991631;28;20437;-79
2021/10/21 08:33:18;;;;;;;1.25;0.43;;;;;;;;;;4991466;28;20034;-78
2021/10/21 08:35:44;;;;;;;0.10;0.10;;;;;;;;;;4991796;28;20030;-79
2021/10/21 08:38:09;;;;;;;1.48;1.13;;;;;;;;;;4991313;28;20022;-79
2021/10/21 08:40:35;;;;;;;0.43;0.43;;;;;;;;;;4992043;28;20030;-79
2021/10/21 08:43:00;;;;;;;0.30;0.30;;;;;;;;;;4991320;28;20108;-80
2021/10/21 08:45:27;;;;;;;0.10;0.10;;;;;;;;;;4991157;28;20019;-80
2021/10/21 08:47:55;;;;;;;0.30;0.30;;;;;;;;;;4991349;28;20038;-79
2021/10/21 08:50:20;;;;;;;0.00;0.00;;;;;;;;;;4991539;28;20049;-78
2021/10/21 08:52:46;;;;;;;16.90;0.98;;;;;;;;;;4991181;28;20486;-78
2021/10/21 08:55:11;;;;;;;0.00;0.00;;;;;;;;;;4991311;28;20046;-79
2021/10/21 08:57:37;;;;;;;0.10;0.10;;;;;;;;;;4991169;28;20102;-79
2021/10/21 09:00:04;;;;;;;0.00;0.00;;;;;;;;;;4990927;28;20018;-77
2021/10/21 09:02:39;;;;;;;0.30;0.30;;;;;;;;;;4990919;28;20151;-80
2021/10/21 09:07:57;;;;;;;0.20;0.20;;;;;;;;;;4990792;28;20047;-79
2021/10/21 09:10:23;;;;;;;0.00;0.00;;;;;;;;;;4990609;28;20050;-79
2021/10/21 09:12:48;;;;;;;0.00;0.00;;;;;;;;;;4990827;28;20157;-79
2021/10/21 09:15:16;;;;;;;0.00;0.00;;;;;;;;;;4990071;28;20084;-79
2021/10/21 09:17:42;;;;;;;1.77;0.80;;;;;;;;;;4989682;28;20114;-77
2021/10/21 09:20:25;;;;;;;0.10;0.10;;;;;;;;;;4990460;28;20117;-77
2021/10/21 09:22:55;;;;;;;0.10;0.10;;;;;;;;;;4989961;28;20018;-76
2021/10/21 09:25:22;;;;;;;0.00;0.00;;;;;;;;;;4990298;28;20042;-76
2021/10/21 09:27:48;;;;;;;0.10;0.10;;;;;;;;;;4990027;28;20049;-79
2021/10/21 09:30:19;;;;;;;0.63;0.40;;;;;;;;;;4990323;28;20018;-77
2021/10/21 09:32:45;;;;;;;0.20;0.20;;;;;;;;;;4990261;28;20553;-79
2021/10/21 09:35:10;;;;;;;0.00;0.00;;;;;;;;;;4989854;28;20433;-79
2021/10/21 09:37:41;;;;;;;0.45;0.35;;;;;;;;;;4989836;28;20375;-77
2021/10/21 09:40:07;;;;;;;0.00;0.00;;;;;;;;;;4990237;28;20030;-85
2021/10/21 09:42:37;;;;;;;0.30;0.25;;;;;;;;;;4990783;28;20030;-79
2021/10/21 09:45:13;;;;;;;1.65;0.73;;;;;;;;;;4989831;28;20546;-81
2021/10/21 09:47:44;;;;;;;0.00;0.00;;;;;;;;;;4990768;28;20040;-80
2021/10/21 09:50:17;;;;;;;0.85;0.60;;;;;;;;;;4989946;28;20505;-79
2021/10/21 09:52:43;;;;;;;0.00;0.00;;;;;;;;;;4990362;28;20038;-79
2021/10/21 09:55:09;;;;;;;0.10;0.10;;;;;;;;;;4994261;28;20117;-78
2021/10/21 09:57:34;;;;;;;0.30;0.30;;;;;;;;;;4994097;28;20018;-79
2021/10/21 10:00:05;;;;;;;0.35;0.35;;;;;;;;;;4992448;28;20030;-78
2021/10/21 10:02:32;;;;;;;1.80;0.93;;;;;;;;;;4992852;28;20467;-82
2021/10/21 10:05:00;;;;;;;1.65;1.20;;;;;;;;;;4992377;28;20022;-79
2021/10/21 10:07:25;;;;;;;0.50;0.50;;;;;;;;;;4993290;28;20035;-77
2021/10/21 10:09:52;;;;;;;0.00;0.00;;;;;;;;;;4992894;28;20133;-83
2021/10/21 10:12:18;;;;;;;0.00;0.00;;;;;;;;;;4994109;28;20109;-77
2021/10/21 10:14:44;;;;;;;0.25;0.25;;;;;;;;;;4993083;28;20134;-78
2021/10/21 10:17:10;;;;;;;0.10;0.10;;;;;;;;;;4993643;28;20049;-77
2021/10/21 10:19:40;;;;;;;0.00;0.00;;;;;;;;;;4992652;28;20425;-77
2021/10/21 10:22:06;;;;;;;24.38;0.85;;;;;;;;;;4993226;28;20159;-77
2021/10/21 10:24:33;;;;;;;0.50;0.50;;;;;;;;;;4993103;28;20110;-77
2021/10/21 10:26:59;;;;;;;0.00;0.00;;;;;;;;;;4993425;28;20478;-78
2021/10/21 10:29:30;;;;;;;0.05;0.05;;;;;;;;;;4993607;28;20041;-78
2021/10/21 10:31:58;;;;;;;0.00;0.00;;;;;;;;;;4993676;28;20027;-78
2021/10/21 10:34:33;;;;;;;0.10;0.10;;;;;;;;;;4993048;28;20066;-77
2021/10/21 10:37:14;;;;;;;0.10;0.10;;;;;;;;;;4993389;28;20033;-77
2021/10/21 10:39:45;;;;;;;0.32;0.32;;;;;;;;;;4993200;28;20101;-78
2021/10/21 10:42:11;;;;;;;1.27;0.80;;;;;;;;;;4992613;28;20383;-77
2021/10/21 10:44:36;;;;;;;0.00;0.00;;;;;;;;;;4992879;28;20022;-80
2021/10/21 10:47:08;;;;;;;0.45;0.45;;;;;;;;;;4979180;28;20084;-77
2021/10/21 10:49:34;;;;;;;0.10;0.10;;;;;;;;;;4984549;28;20114;-79
2021/10/21 10:51:59;;;;;;;2.17;0.52;;;;;;;;;;4981720;28;20441;-77
2021/10/21 10:54:39;;;;;;;0.00;0.00;;;;;;;;;;4992517;28;20442;-77
2021/10/21 10:57:05;;;;;;;0.10;0.10;;;;;;;;;;4992757;28;20121;-79
2021/10/21 10:59:31;;;;;;;0.00;0.00;;;;;;;;;;4993323;28;20060;-77
2021/10/21 11:02:01;;;;;;;0.00;0.00;;;;;;;;;;4992433;28;20042;-77
2021/10/21 11:04:45;;;;;;;0.00;0.00;;;;;;;;;;4992265;28;20033;-78
2021/10/21 11:07:10;;;;;;;0.00;0.00;;;;;;;;;;4992354;28;20019;-76
2021/10/21 11:09:36;;;;;;;0.40;0.40;;;;;;;;;;4968771;28;20057;-77
2021/10/21 11:12:01;;;;;;;0.00;0.00;;;;;;;;;;4965093;28;20456;-77
2021/10/21 11:14:30;;;;;;;0.00;0.00;;;;;;;;;;4952570;29;20036;-76
2021/10/21 11:16:56;;;;;;;0.00;0.00;;;;;;;;;;4952804;29;20413;-78
2021/10/21 11:19:39;;;;;;;1.90;0.28;;;;;;;;;;4953563;29;20023;-77
2021/10/21 11:22:04;;;;;;;0.43;0.43;;;;;;;;;;4953538;29;20461;-77
2021/10/21 11:24:49;;;;;;;0.10;0.10;;;;;;;;;;4953331;29;20035;-78
2021/10/21 11:27:18;;;;;;;0.00;0.00;;;;;;;;;;4953281;29;20038;-77
2021/10/21 11:29:44;;;;;;;0.00;0.00;;;;;;;;;;4952643;29;20547;-78
2021/10/21 11:32:10;;;;;;;0.00;0.00;;;;;;;;;;4952269;29;20031;-76
2021/10/21 11:34:35;;;;;;;0.00;0.00;;;;;;;;;;4953516;29;20039;-77
2021/10/21 11:37:01;;;;;;;0.00;0.00;;;;;;;;;;4953009;29;20488;-76
2021/10/21 11:39:30;;;;;;;0.00;0.00;;;;;;;;;;4952945;29;20042;-76
2021/10/21 11:41:56;;;;;;;0.22;0.22;;;;;;;;;;4952847;29;20386;-77
2021/10/21 11:44:22;;;;;;;0.05;0.05;;;;;;;;;;4953107;29;20126;-78
2021/10/21 11:46:55;;;;;;;9.95;0.68;;;;;;;;;;4952494;29;20035;-78
2021/10/21 11:49:26;;;;;;;0.10;0.10;;;;;;;;;;4952509;29;20847;-77
2021/10/21 11:52:05;;;;;;;0.00;0.00;;;;;;;;;;4953288;29;20146;-76
2021/10/21 11:54:30;;;;;;;0.00;0.00;;;;;;;;;;4952734;29;20043;-77
2021/10/21 11:56:56;;;;;;;0.00;0.00;;;;;;;;;;4952439;29;20082;-76
2021/10/21 11:59:51;;;;;;;0.10;0.10;;;;;;;;;;4953130;29;20356;-77
2021/10/21 12:02:18;;;;;;;0.10;0.10;;;;;;;;;;4943777;28;20057;-79
2021/10/21 12:04:45;;;;;;;0.00;0.00;;;;;;;;;;4953500;29;20043;-76
2021/10/21 12:07:11;;;;;;;0.32;0.30;;;;;;;;;;4952507;29;20046;-77
2021/10/21 12:09:37;;;;;;;1.67;0.63;;;;;;;;;;4963360;28;20138;-77
2021/10/21 12:12:04;;;;;;;0.03;0.03;;;;;;;;;;4971098;28;20093;-77
2021/10/21 12:14:30;;;;;;;0.00;0.00;;;;;;;;;;4971221;28;20367;-77
2021/10/21 12:16:56;;;;;;;0.10;0.10;;;;;;;;;;4970965;28;20038;-77
2021/10/21 12:19:22;;;;;;;0.65;0.65;;;;;;;;;;4971417;28;20034;-78
2021/10/21 12:21:47;;;;;;;1.38;0.75;;;;;;;;;;4971185;28;20027;-77
2021/10/21 12:24:20;;;;;;;2.90;1.98;;;;;;;;;;4971742;28;20041;-77
2021/10/21 12:26:51;;;;;;;1.17;0.63;;;;;;;;;;4971551;28;20031;-76
2021/10/21 12:29:17;;;;;;;0.10;0.10;;;;;;;;;;4971607;28;20030;-77
2021/10/21 12:31:42;;;;;;;0.00;0.00;;;;;;;;;;4971825;28;20057;-78
2021/10/21 12:34:13;;;;;;;0.10;0.10;;;;;;;;;;4972278;28;20114;-76
2021/10/21 12:36:46;;;;;;;0.00;0.00;;;;;;;;;;4971651;28;20611;-78
2021/10/21 12:39:13;;;;;;;0.00;0.00;;;;;;;;;;4971325;28;20039;-78
2021/10/21 12:41:52;;;;;;;0.00;0.00;;;;;;;;;;4971861;28;20034;-77
2021/10/21 12:44:18;;;;;;;0.00;0.00;;;;;;;;;;4971593;28;20027;-76
2021/10/21 12:46:44;;;;;;;0.00;0.00;;;;;;;;;;4971286;28;20502;-79
2021/10/21 12:49:10;;;;;;;0.00;0.00;;;;;;;;;;4971290;28;20026;-79
2021/10/21 12:51:36;;;;;;;0.63;0.63;;;;;;;;;;4972296;28;20101;-77
2021/10/21 12:54:01;;;;;;;0.00;0.00;;;;;;;;;;4971633;28;20121;-78
2021/10/21 12:56:26;;;;;;;2.42;0.32;;;;;;;;;;4971634;28;20378;-77
2021/10/21 12:59:02;;;;;;;0.00;0.00;;;;;;;;;;4971065;28;20094;-79
2021/10/21 13:01:27;;;;;;;0.10;0.10;;;;;;;;;;4970677;28;20493;-79
2021/10/21 13:03:53;;;;;;;0.00;0.00;;;;;;;;;;4953610;28;20026;-77
2021/10/21 13:06:19;;;;;;;0.00;0.00;;;;;;;;;;4971348;28;20059;-77
2021/10/21 13:08:51;;;;;;;0.03;0.03;;;;;;;;;;4971258;28;20026;-78
2021/10/21 13:11:19;;;;;;;0.00;0.00;;;;;;;;;;4971638;28;20050;-77
2021/10/21 13:13:48;;;;;;;0.00;0.00;;;;;;;;;;4971644;28;20065;-77
2021/10/21 13:16:14;;;;;;;0.00;0.00;;;;;;;;;;4971073;28;20390;-77
2021/10/21 13:18:39;;;;;;;0.05;0.05;;;;;;;;;;4970320;28;20026;-77
2021/10/21 13:21:05;;;;;;;0.00;0.00;;;;;;;;;;4970512;28;20472;-77
2021/10/21 13:23:31;;;;;;;0.00;0.00;;;;;;;;;;4969786;28;20030;-77
2021/10/21 13:25:57;;;;;;;0.00;0.00;;;;;;;;;;4970495;28;20025;-77
2021/10/21 13:28:22;;;;;;;0.10;0.10;;;;;;;;;;4971686;28;20066;-77
2021/10/21 13:30:48;;;;;;;0.00;0.00;;;;;;;;;;4974475;28;20031;-77
2021/10/21 13:33:13;;;;;;;0.00;0.00;;;;;;;;;;4974319;28;20031;-79
2021/10/21 13:35:39;;;;;;;0.05;0.05;;;;;;;;;;4971785;28;20038;-78
2021/10/21 13:38:05;;;;;;;0.30;0.30;;;;;;;;;;4973882;28;20032;-78
2021/10/21 13:40:30;;;;;;;0.00;0.00;;;;;;;;;;4974398;28;20027;-77
2021/10/21 13:42:56;;;;;;;2.83;0.65;;;;;;;;;;4974498;28;20493;-77
2021/10/21 13:45:21;;;;;;;0.00;0.00;;;;;;;;;;4973737;28;20085;-77
2021/10/21 13:47:46;;;;;;;1.73;1.17;;;;;;;;;;4955880;28;20070;-79
2021/10/21 13:50:12;;;;;;;0.00;0.00;;;;;;;;;;4974015;28;20119;-78
2021/10/21 13:52:37;;;;;;;0.00;0.00;;;;;;;;;;4973962;28;20042;-79
2021/10/21 13:55:03;;;;;;;0.00;0.00;;;;;;;;;;4974719;28;20161;-78
2021/10/21 13:57:30;;;;;;;0.00;0.00;;;;;;;;;;4973315;28;20117;-77
2021/10/21 13:59:55;;;;;;;0.00;0.00;;;;;;;;;;4972719;28;20045;-77
2021/10/21 14:02:20;;;;;;;0.00;0.00;;;;;;;;;;4974263;28;20045;-77
2021/10/21 14:04:52;;;;;;;0.15;0.15;;;;;;;;;;4974608;28;20042;-77
2021/10/21 14:07:21;;;;;;;0.20;0.20;;;;;;;;;;4974258;28;20109;-77
2021/10/21 14:09:46;;;;;;;1.75;0.90;;;;;;;;;;4973604;28;20047;-78
2021/10/21 14:12:12;;;;;;;6.72;0.68;;;;;;;;;;4974158;28;20410;-78
2021/10/21 14:14:37;;;;;;;0.00;0.00;;;;;;;;;;4973618;28;20090;-77
2021/10/21 14:17:02;;;;;;;0.00;0.00;;;;;;;;;;4973600;28;20026;-77
2021/10/21 14:19:28;;;;;;;0.00;0.00;;;;;;;;;;4973537;28;20042;-77
2021/10/21 14:21:53;;;;;;;0.00;0.00;;;;;;;;;;4973407;28;20455;-77
2021/10/21 14:24:18;;;;;;;0.00;0.00;;;;;;;;;;4974349;28;20462;-78
2021/10/21 14:26:44;;;;;;;0.00;0.00;;;;;;;;;;4973646;28;20039;-77
2021/10/21 14:29:12;;;;;;;0.00;0.00;;;;;;;;;;4973301;28;20085;-78
2021/10/21 14:31:39;;;;;;;0.00;0.00;;;;;;;;;;4973744;28;20551;-78
2021/10/21 14:34:05;;;;;;;0.10;0.10;;;;;;;;;;4973400;28;20039;-78
2021/10/21 14:36:30;;;;;;;0.13;0.13;;;;;;;;;;4973630;28;20039;-77
2021/10/21 14:38:56;;;;;;;0.00;0.00;;;;;;;;;;4974160;28;20034;-77
2021/10/21 14:41:21;;;;;;;0.00;0.00;;;;;;;;;;4973258;28;20502;-78